createdAt,value
2018-06-23T00:00:08.252Z,23.9
2018-06-23T00:00:58.845Z,23.9
2018-06-23T00:01:48.430Z,24
2018-06-23T00:02:38.804Z,24
2018-06-23T00:03:28.536Z,24.1
2018-06-23T00:04:18.627Z,24.1
2018-06-23T00:05:08.066Z,24.1
2018-06-23T00:05:59.009Z,24
2018-06-23T00:06:48.318Z,24
2018-06-23T00:07:38.650Z,23.9
2018-06-23T00:08:28.615Z,23.8
2018-06-23T00:09:19.266Z,23.8
2018-06-23T00:10:09.631Z,23.9
2018-06-23T00:10:59.122Z,23.9
2018-06-23T00:11:49.124Z,23.9
2018-06-23T00:12:39.190Z,23.8
2018-06-23T00:13:28.726Z,23.8
2018-06-23T00:14:18.824Z,23.8
2018-06-23T00:15:09.386Z,23.8
2018-06-23T00:15:59.217Z,23.9
2018-06-23T00:16:49.286Z,24
2018-06-23T00:17:39.969Z,24
2018-06-23T00:18:28.820Z,23.9
2018-06-23T00:19:19.774Z,24
2018-06-23T00:20:10.080Z,23.9
2018-06-23T00:20:59.004Z,23.9
2018-06-23T00:21:49.682Z,24
2018-06-23T00:22:40.289Z,24.1
2018-06-23T00:23:28.934Z,24.1
2018-06-23T00:24:20.139Z,24.1
2018-06-23T00:25:09.609Z,24.1
2018-06-23T00:26:00.532Z,24.1
2018-06-23T00:26:49.995Z,24
2018-06-23T00:27:39.536Z,24
2018-06-23T00:28:29.894Z,24
2018-06-23T00:29:20.505Z,24
2018-06-23T00:30:10.004Z,23.9
2018-06-23T00:31:00.606Z,23.9
2018-06-23T00:31:51.018Z,23.9
2018-06-23T00:32:40.436Z,23.9
2018-06-23T00:33:30.012Z,23.9
2018-06-23T00:34:20.853Z,23.9
2018-06-23T00:35:11.276Z,24
2018-06-23T00:36:01.261Z,23.9
2018-06-23T00:36:51.647Z,24
2018-06-23T00:37:41.420Z,24
2018-06-23T00:38:30.929Z,24
2018-06-23T00:39:20.986Z,24
2018-06-23T00:40:11.313Z,23.9
2018-06-23T00:41:00.819Z,23.9
2018-06-23T00:41:51.157Z,23.9
2018-06-23T00:42:41.500Z,23.9
2018-06-23T00:43:31.532Z,23.9
2018-06-23T00:44:22.190Z,24
2018-06-23T00:45:12.248Z,24
2018-06-23T00:46:02.295Z,24.1
2018-06-23T00:46:52.375Z,24.1
2018-06-23T00:47:42.192Z,24
2018-06-23T00:48:31.661Z,24
2018-06-23T00:49:21.185Z,24
2018-06-23T00:50:12.077Z,24
2018-06-23T00:51:02.126Z,23.9
2018-06-23T00:51:51.719Z,23.9
2018-06-23T00:52:41.977Z,23.9
2018-06-23T00:53:32.035Z,23.9
2018-06-23T00:54:22.241Z,23.9
2018-06-23T00:55:13.027Z,23.9
2018-06-23T00:56:01.733Z,23.9
2018-06-23T00:56:51.258Z,24
2018-06-23T00:57:43.233Z,23.9
2018-06-23T00:58:31.472Z,24
2018-06-23T00:59:23.092Z,23.9
2018-06-23T01:00:12.379Z,23.9
2018-06-23T01:01:03.460Z,23.9
2018-06-23T01:01:53.246Z,23.9
2018-06-23T01:02:43.095Z,23.9
2018-06-23T01:03:32.852Z,23.9
2018-06-23T01:04:23.665Z,23.9
2018-06-23T01:05:12.721Z,23.9
2018-06-23T01:06:02.459Z,23.9
2018-06-23T01:06:53.629Z,23.8
2018-06-23T01:07:42.066Z,23.8
2018-06-23T01:08:32.437Z,23.8
2018-06-23T01:09:23.469Z,23.8
2018-06-23T01:10:12.619Z,23.9
2018-06-23T01:11:03.128Z,23.9
2018-06-23T01:11:52.454Z,23.9
2018-06-23T01:12:42.455Z,23.8
2018-06-23T01:13:33.661Z,23.8
2018-06-23T01:14:23.455Z,23.8
2018-06-23T01:15:12.960Z,23.8
2018-06-23T01:16:04.624Z,23.8
2018-06-23T01:16:53.301Z,23.7
2018-06-23T01:17:44.241Z,23.8
2018-06-23T01:18:33.450Z,23.8
2018-06-23T01:19:23.854Z,23.8
2018-06-23T01:20:13.328Z,23.9
2018-06-23T01:21:03.110Z,23.9
2018-06-23T01:21:54.575Z,23.9
2018-06-23T01:22:44.405Z,23.9
2018-06-23T01:23:34.438Z,23.9
2018-06-23T01:24:24.235Z,23.9
2018-06-23T01:25:14.587Z,23.9
2018-06-23T01:26:04.582Z,23.9
2018-06-23T01:26:53.555Z,23.9
2018-06-23T01:27:45.037Z,23.9
2018-06-23T01:28:33.969Z,23.9
2018-06-23T01:29:24.072Z,23.9
2018-06-23T01:30:14.388Z,23.9
2018-06-23T01:31:04.994Z,23.9
2018-06-23T01:31:55.373Z,23.9
2018-06-23T01:32:44.779Z,23.9
2018-06-23T01:33:35.187Z,23.9
2018-06-23T01:34:25.498Z,23.9
2018-06-23T01:35:15.359Z,24
2018-06-23T01:36:05.670Z,23.9
2018-06-23T01:36:55.195Z,23.9
2018-06-23T01:37:45.212Z,24
2018-06-23T01:38:34.437Z,23.9
2018-06-23T01:39:24.822Z,23.9
2018-06-23T01:40:14.857Z,23.9
2018-06-23T01:41:05.769Z,23.9
2018-06-23T01:41:54.704Z,23.9
2018-06-23T01:42:44.484Z,23.9
2018-06-23T01:43:36.254Z,23.9
2018-06-23T01:44:26.396Z,23.9
2018-06-23T01:45:15.544Z,23.9
2018-06-23T01:46:05.027Z,23.9
2018-06-23T01:46:55.072Z,24
2018-06-23T01:47:44.854Z,24
2018-06-23T01:48:35.819Z,23.9
2018-06-23T01:49:26.159Z,23.9
2018-06-23T01:50:15.423Z,23.9
2018-06-23T01:51:06.320Z,23.9
2018-06-23T01:51:56.859Z,23.9
2018-06-23T01:52:45.833Z,23.8
2018-06-23T01:53:36.475Z,23.8
2018-06-23T01:54:25.681Z,23.8
2018-06-23T01:55:16.478Z,23.8
2018-06-23T01:56:07.077Z,23.8
2018-06-23T01:56:57.100Z,23.8
2018-06-23T01:57:47.523Z,23.8
2018-06-23T01:58:36.880Z,23.8
2018-06-23T01:59:27.133Z,23.8
2018-06-23T02:00:16.125Z,23.7
2018-06-23T02:01:07.516Z,23.8
2018-06-23T02:01:56.528Z,23.8
2018-06-23T02:02:48.244Z,23.8
2018-06-23T02:03:37.963Z,23.8
2018-06-23T02:04:27.526Z,23.7
2018-06-23T02:05:16.785Z,23.7
2018-06-23T02:06:06.569Z,23.8
2018-06-23T02:06:57.490Z,23.8
2018-06-23T02:07:46.930Z,23.8
2018-06-23T02:08:38.073Z,23.8
2018-06-23T02:09:26.794Z,23.8
2018-06-23T02:10:16.842Z,23.8
2018-06-23T02:11:07.861Z,23.8
2018-06-23T02:11:58.352Z,23.8
2018-06-23T02:12:47.758Z,23.7
2018-06-23T02:13:38.215Z,23.7
2018-06-23T02:14:28.542Z,23.6
2018-06-23T02:15:17.713Z,23.6
2018-06-23T02:16:07.820Z,23.6
2018-06-23T02:16:58.973Z,23.5
2018-06-23T02:17:48.515Z,23.5
2018-06-23T02:18:38.531Z,23.5
2018-06-23T02:19:28.134Z,23.5
2018-06-23T02:20:18.157Z,23.5
2018-06-23T02:21:08.814Z,23.5
2018-06-23T02:21:58.801Z,23.6
2018-06-23T02:22:49.732Z,23.6
2018-06-23T02:23:39.185Z,23.6
2018-06-23T02:24:29.109Z,23.6
2018-06-23T02:25:19.641Z,23.6
2018-06-23T02:26:09.356Z,23.6
2018-06-23T02:26:59.494Z,23.7
2018-06-23T02:27:49.809Z,23.6
2018-06-23T02:28:38.801Z,23.6
2018-06-23T02:29:29.526Z,23.6
2018-06-23T02:30:18.899Z,23.6
2018-06-23T02:31:09.914Z,23.6
2018-06-23T02:31:59.940Z,23.6
2018-06-23T02:32:49.338Z,23.6
2018-06-23T02:33:40.599Z,23.6
2018-06-23T02:34:29.774Z,23.6
2018-06-23T02:35:20.456Z,23.6
2018-06-23T02:36:10.161Z,23.6
2018-06-23T02:37:00.014Z,23.6
2018-06-23T02:37:50.380Z,23.7
2018-06-23T02:38:40.668Z,23.6
2018-06-23T02:39:29.402Z,23.6
2018-06-23T02:40:19.371Z,23.6
2018-06-23T02:41:09.742Z,23.6
2018-06-23T02:42:00.918Z,23.7
2018-06-23T02:42:50.959Z,23.7
2018-06-23T02:43:40.593Z,23.6
2018-06-23T02:44:30.793Z,23.6
2018-06-23T02:45:21.448Z,23.6
2018-06-23T02:46:11.213Z,23.6
2018-06-23T02:47:00.530Z,23.6
2018-06-23T02:47:50.775Z,23.6
2018-06-23T02:48:40.958Z,23.6
2018-06-23T02:49:31.200Z,23.6
2018-06-23T02:50:21.581Z,23.6
2018-06-23T02:51:10.350Z,23.6
2018-06-23T02:52:01.094Z,23.6
2018-06-23T02:52:51.621Z,23.6
2018-06-23T02:53:40.904Z,23.6
2018-06-23T02:54:31.318Z,23.6
2018-06-23T02:55:21.944Z,23.6
2018-06-23T02:56:11.740Z,23.6
2018-06-23T02:57:01.009Z,23.5
2018-06-23T02:57:50.783Z,23.5
2018-06-23T02:58:41.416Z,23.5
2018-06-23T02:59:31.687Z,23.5
2018-06-23T03:00:21.745Z,23.5
2018-06-23T03:01:11.356Z,23.5
2018-06-23T03:02:01.571Z,23.5
2018-06-23T03:02:52.048Z,23.5
2018-06-23T03:03:41.957Z,23.5
2018-06-23T03:04:30.722Z,23.5
2018-06-23T03:05:21.991Z,23.4
2018-06-23T03:06:12.510Z,23.4
2018-06-23T03:07:01.498Z,23.3
2018-06-23T03:07:53.173Z,23.3
2018-06-23T03:08:42.725Z,23.3
2018-06-23T03:09:32.241Z,23.3
2018-06-23T03:10:21.997Z,23.3
2018-06-23T03:11:12.086Z,23.3
2018-06-23T03:12:02.704Z,23.3
2018-06-23T03:12:53.079Z,23.2
2018-06-23T03:13:42.564Z,23.1
2018-06-23T03:14:32.113Z,23.1
2018-06-23T03:15:22.897Z,23.2
2018-06-23T03:16:12.259Z,23.1
2018-06-23T03:17:01.384Z,23.1
2018-06-23T03:17:53.161Z,23.1
2018-06-23T03:18:42.980Z,23.1
2018-06-23T03:19:33.313Z,23.1
2018-06-23T03:20:22.442Z,23.1
2018-06-23T03:21:12.864Z,23.1
2018-06-23T03:22:02.921Z,23.1
2018-06-23T03:22:53.208Z,23.1
2018-06-23T03:23:43.754Z,23
2018-06-23T03:24:32.768Z,23
2018-06-23T03:25:23.573Z,23.1
2018-06-23T03:26:13.454Z,23.1
2018-06-23T03:27:03.815Z,23.1
2018-06-23T03:27:53.308Z,23.2
2018-06-23T03:28:43.904Z,23.1
2018-06-23T03:29:33.152Z,23.1
2018-06-23T03:30:24.412Z,23.1
2018-06-23T03:31:13.681Z,23.2
2018-06-23T03:32:03.983Z,23.2
2018-06-23T03:32:53.742Z,23.2
2018-06-23T03:33:43.480Z,23.2
2018-06-23T03:34:33.817Z,23.2
2018-06-23T03:35:24.181Z,23.1
2018-06-23T03:36:14.235Z,23
2018-06-23T03:37:03.527Z,23.1
2018-06-23T03:37:54.955Z,23.1
2018-06-23T03:38:44.927Z,23.1
2018-06-23T03:39:33.891Z,23.1
2018-06-23T03:40:24.555Z,23.1
2018-06-23T03:41:15.148Z,23.1
2018-06-23T03:42:04.386Z,23.1
2018-06-23T03:42:55.191Z,23.1
2018-06-23T03:43:44.453Z,23.1
2018-06-23T03:44:34.807Z,23.1
2018-06-23T03:45:25.215Z,23.2
2018-06-23T03:46:14.396Z,23.2
2018-06-23T03:47:05.334Z,23.3
2018-06-23T03:47:55.673Z,23.3
2018-06-23T03:48:44.923Z,23.2
2018-06-23T03:49:35.468Z,23.2
2018-06-23T03:50:25.560Z,23.2
2018-06-23T03:51:15.687Z,23.3
2018-06-23T03:52:04.881Z,23.3
2018-06-23T03:52:55.465Z,23.3
2018-06-23T03:53:45.043Z,23.3
2018-06-23T03:54:35.863Z,23.3
2018-06-23T03:55:25.935Z,23.2
2018-06-23T03:56:15.458Z,23.1
2018-06-23T03:57:05.795Z,23.1
2018-06-23T03:57:55.552Z,23.1
2018-06-23T03:58:46.227Z,23.1
2018-06-23T03:59:36.288Z,23.1
2018-06-23T04:00:26.053Z,23
2018-06-23T04:01:16.127Z,23
2018-06-23T04:02:06.730Z,22.9
2018-06-23T04:02:56.258Z,23
2018-06-23T04:03:46.847Z,23
2018-06-23T04:04:36.350Z,23
2018-06-23T04:05:26.435Z,23.1
2018-06-23T04:06:15.921Z,23.1
2018-06-23T04:07:06.704Z,23.1
2018-06-23T04:07:56.309Z,23.1
2018-06-23T04:08:46.423Z,23.1
2018-06-23T04:09:36.719Z,23.1
2018-06-23T04:10:27.070Z,23.1
2018-06-23T04:11:16.601Z,23.1
2018-06-23T04:12:07.207Z,23.1
2018-06-23T04:12:57.008Z,23.1
2018-06-23T04:13:47.027Z,23.1
2018-06-23T04:14:36.839Z,23.1
2018-06-23T04:15:27.429Z,23.1
2018-06-23T04:16:18.232Z,23.1
2018-06-23T04:17:08.407Z,23.1
2018-06-23T04:17:57.644Z,23.2
2018-06-23T04:18:47.577Z,23.1
2018-06-23T04:19:37.762Z,23.1
2018-06-23T04:20:27.518Z,23.1
2018-06-23T04:21:17.633Z,22.9
2018-06-23T04:22:08.430Z,22.9
2018-06-23T04:22:57.976Z,22.8
2018-06-23T04:23:47.810Z,22.8
2018-06-23T04:24:37.279Z,22.9
2018-06-23T04:25:27.313Z,22.9
2018-06-23T04:26:18.450Z,22.9
2018-06-23T04:27:08.834Z,22.9
2018-06-23T04:27:59.093Z,22.9
2018-06-23T04:28:48.285Z,22.9
2018-06-23T04:29:38.451Z,22.9
2018-06-23T04:30:28.551Z,22.9
2018-06-23T04:31:18.320Z,22.8
2018-06-23T04:32:09.502Z,22.8
2018-06-23T04:32:58.899Z,22.8
2018-06-23T04:33:48.257Z,22.8
2018-06-23T04:34:39.362Z,22.8
2018-06-23T04:35:28.652Z,22.8
2018-06-23T04:36:19.299Z,22.8
2018-06-23T04:37:09.036Z,22.8
2018-06-23T04:37:58.932Z,22.8
2018-06-23T04:38:49.253Z,22.8
2018-06-23T04:39:38.427Z,22.9
2018-06-23T04:40:28.830Z,22.8
2018-06-23T04:41:20.130Z,22.8
2018-06-23T04:42:10.218Z,22.8
2018-06-23T04:42:59.236Z,22.9
2018-06-23T04:43:49.257Z,22.8
2018-06-23T04:44:40.240Z,22.8
2018-06-23T04:45:29.886Z,22.8
2018-06-23T04:46:19.959Z,22.8
2018-06-23T04:47:09.734Z,22.8
2018-06-23T04:48:00.033Z,22.8
2018-06-23T04:48:50.728Z,22.8
2018-06-23T04:49:40.009Z,22.8
2018-06-23T04:50:30.254Z,22.8
2018-06-23T04:51:20.619Z,22.8
2018-06-23T04:52:09.800Z,22.8
2018-06-23T04:52:59.898Z,22.8
2018-06-23T04:53:50.491Z,22.8
2018-06-23T04:54:40.337Z,22.8
2018-06-23T04:55:30.911Z,22.7
2018-06-23T04:56:20.949Z,22.6
2018-06-23T04:57:10.754Z,22.6
2018-06-23T04:58:01.918Z,22.6
2018-06-23T04:58:50.352Z,22.6
2018-06-23T04:59:41.552Z,22.6
2018-06-23T05:00:32.234Z,22.6
2018-06-23T05:01:20.842Z,22.7
2018-06-23T05:02:11.381Z,22.8
2018-06-23T05:03:01.197Z,22.8
2018-06-23T05:03:51.538Z,22.8
2018-06-23T05:04:39.924Z,22.9
2018-06-23T05:05:30.858Z,22.9
2018-06-23T05:06:20.976Z,22.9
2018-06-23T05:07:11.021Z,22.9
2018-06-23T05:08:01.080Z,22.9
2018-06-23T05:08:51.269Z,22.9
2018-06-23T05:09:41.785Z,22.9
2018-06-23T05:10:30.458Z,23
2018-06-23T05:11:21.115Z,23
2018-06-23T05:12:11.953Z,22.9
2018-06-23T05:13:01.118Z,22.9
2018-06-23T05:13:51.508Z,22.8
2018-06-23T05:14:41.875Z,22.8
2018-06-23T05:15:31.170Z,22.8
2018-06-23T05:16:22.538Z,22.8
2018-06-23T05:17:12.563Z,22.8
2018-06-23T05:18:02.089Z,22.8
2018-06-23T05:18:52.119Z,22.8
2018-06-23T05:19:41.141Z,22.8
2018-06-23T05:20:32.425Z,22.8
2018-06-23T05:21:23.162Z,22.8
2018-06-23T05:22:12.215Z,22.8
2018-06-23T05:23:02.259Z,22.8
2018-06-23T05:23:52.869Z,22.8
2018-06-23T05:24:42.645Z,22.8
2018-06-23T05:25:31.837Z,22.9
2018-06-23T05:26:22.786Z,22.9
2018-06-23T05:27:12.349Z,22.9
2018-06-23T05:28:03.149Z,22.9
2018-06-23T05:28:53.000Z,22.9
2018-06-23T05:29:42.199Z,22.9
2018-06-23T05:30:33.574Z,22.9
2018-06-23T05:31:23.449Z,22.9
2018-06-23T05:32:12.606Z,23
2018-06-23T05:33:02.723Z,23
2018-06-23T05:33:52.237Z,23
2018-06-23T05:34:43.113Z,23
2018-06-23T05:35:32.946Z,23
2018-06-23T05:36:23.818Z,23
2018-06-23T05:37:13.996Z,23
2018-06-23T05:38:03.677Z,22.9
2018-06-23T05:38:53.979Z,23
2018-06-23T05:39:43.237Z,23
2018-06-23T05:40:33.612Z,23
2018-06-23T05:41:23.974Z,22.9
2018-06-23T05:42:12.863Z,22.9
2018-06-23T05:43:04.063Z,22.9
2018-06-23T05:43:53.856Z,22.9
2018-06-23T05:44:43.489Z,22.9
2018-06-23T05:45:34.260Z,23
2018-06-23T05:46:23.492Z,23
2018-06-23T05:47:14.641Z,23
2018-06-23T05:48:04.377Z,22.9
2018-06-23T05:48:54.800Z,22.9
2018-06-23T05:49:45.311Z,22.9
2018-06-23T05:50:33.665Z,22.9
2018-06-23T05:51:26.712Z,22.9
2018-06-23T05:52:15.034Z,22.8
2018-06-23T05:53:05.245Z,22.8
2018-06-23T05:53:55.322Z,22.9
2018-06-23T05:54:45.084Z,22.9
2018-06-23T05:55:35.264Z,22.9
2018-06-23T05:56:25.854Z,22.9
2018-06-23T05:57:15.870Z,22.9
2018-06-23T05:58:04.235Z,22.9
2018-06-23T05:58:55.986Z,23
2018-06-23T05:59:46.073Z,23.1
2018-06-23T06:00:35.950Z,23.1
2018-06-23T06:01:25.030Z,23
2018-06-23T06:02:15.713Z,23
2018-06-23T06:03:06.014Z,23.1
2018-06-23T06:03:56.108Z,23.1
2018-06-23T06:04:46.237Z,23
2018-06-23T06:05:35.932Z,23
2018-06-23T06:06:25.742Z,23
2018-06-23T06:07:16.660Z,23
2018-06-23T06:08:06.677Z,23
2018-06-23T06:08:56.746Z,23
2018-06-23T06:09:46.249Z,23
2018-06-23T06:10:36.004Z,23.1
2018-06-23T06:11:26.646Z,23.1
2018-06-23T06:12:16.731Z,23.1
2018-06-23T06:13:06.825Z,23.1
2018-06-23T06:13:56.864Z,23.1
2018-06-23T06:14:46.363Z,23.1
2018-06-23T06:15:36.710Z,23
2018-06-23T06:16:27.010Z,23
2018-06-23T06:17:17.359Z,23
2018-06-23T06:18:07.144Z,23.1
2018-06-23T06:18:56.906Z,23.1
2018-06-23T06:19:47.516Z,23
2018-06-23T06:20:37.330Z,22.9
2018-06-23T06:21:27.096Z,22.9
2018-06-23T06:22:16.887Z,22.9
2018-06-23T06:23:06.942Z,22.9
2018-06-23T06:23:59.065Z,23
2018-06-23T06:24:47.607Z,23
2018-06-23T06:25:36.867Z,23.1
2018-06-23T06:26:27.746Z,23
2018-06-23T06:27:18.151Z,23
2018-06-23T06:28:07.845Z,23
2018-06-23T06:28:58.125Z,23
2018-06-23T06:29:47.213Z,22.9
2018-06-23T06:30:38.089Z,23
2018-06-23T06:31:28.426Z,23
2018-06-23T06:32:17.668Z,23
2018-06-23T06:33:08.028Z,23.1
2018-06-23T06:33:58.110Z,23.1
2018-06-23T06:34:48.713Z,23.1
2018-06-23T06:35:38.927Z,23.1
2018-06-23T06:36:27.406Z,23.1
2018-06-23T06:37:18.066Z,23.1
2018-06-23T06:38:07.294Z,23.1
2018-06-23T06:38:58.796Z,23.1
2018-06-23T06:39:49.075Z,23.1
2018-06-23T06:40:38.908Z,23.1
2018-06-23T06:41:29.188Z,23.1
2018-06-23T06:42:18.420Z,23.1
2018-06-23T06:43:09.045Z,23.1
2018-06-23T06:43:58.287Z,23.1
2018-06-23T06:44:49.359Z,23.1
2018-06-23T06:45:38.715Z,23.2
2018-06-23T06:46:28.517Z,23.2
2018-06-23T06:47:18.061Z,23.1
2018-06-23T06:48:09.177Z,23.1
2018-06-23T06:48:58.895Z,23.1
2018-06-23T06:49:48.747Z,23.1
2018-06-23T06:50:38.793Z,23
2018-06-23T06:51:29.099Z,23
2018-06-23T06:52:19.794Z,23
2018-06-23T06:53:09.241Z,23
2018-06-23T06:54:00.154Z,22.9
2018-06-23T06:54:49.979Z,22.9
2018-06-23T06:55:40.222Z,23
2018-06-23T06:56:30.122Z,23
2018-06-23T06:57:21.037Z,23
2018-06-23T06:58:09.622Z,22.9
2018-06-23T06:59:00.463Z,22.9
2018-06-23T06:59:49.826Z,22.9
2018-06-23T07:00:40.094Z,22.9
2018-06-23T07:01:30.154Z,22.8
2018-06-23T07:02:20.213Z,22.8
2018-06-23T07:03:10.294Z,22.8
2018-06-23T07:04:00.591Z,22.8
2018-06-23T07:04:50.946Z,22.7
2018-06-23T07:05:41.014Z,22.7
2018-06-23T07:06:30.289Z,22.6
2018-06-23T07:07:21.148Z,22.6
2018-06-23T07:08:10.925Z,22.7
2018-06-23T07:09:01.768Z,22.7
2018-06-23T07:09:50.832Z,22.7
2018-06-23T07:10:40.855Z,22.6
2018-06-23T07:11:30.636Z,22.6
2018-06-23T07:12:21.283Z,22.6
2018-06-23T07:13:11.612Z,22.6
2018-06-23T07:14:01.365Z,22.6
2018-06-23T07:14:51.176Z,22.6
2018-06-23T07:15:42.732Z,22.5
2018-06-23T07:16:31.295Z,22.5
2018-06-23T07:17:21.924Z,22.5
2018-06-23T07:18:11.701Z,22.5
2018-06-23T07:19:01.995Z,22.4
2018-06-23T07:19:51.538Z,22.5
2018-06-23T07:20:41.264Z,22.5
2018-06-23T07:21:31.903Z,22.6
2018-06-23T07:22:21.721Z,22.6
2018-06-23T07:23:11.771Z,22.6
2018-06-23T07:24:04.467Z,22.6
2018-06-23T07:24:51.664Z,22.4
2018-06-23T07:25:41.368Z,22.5
2018-06-23T07:26:32.000Z,22.6
2018-06-23T07:27:21.861Z,22.6
2018-06-23T07:28:11.896Z,22.6
2018-06-23T07:29:02.727Z,22.6
2018-06-23T07:29:52.242Z,22.6
2018-06-23T07:30:43.292Z,22.6
2018-06-23T07:31:32.378Z,22.6
2018-06-23T07:32:22.747Z,22.6
2018-06-23T07:33:12.839Z,22.4
2018-06-23T07:34:02.574Z,22.4
2018-06-23T07:34:55.370Z,22.5
2018-06-23T07:35:42.146Z,22.5
2018-06-23T07:36:33.062Z,22.4
2018-06-23T07:37:23.139Z,22.4
2018-06-23T07:38:12.856Z,22.4
2018-06-23T07:39:03.516Z,22.5
2018-06-23T07:39:52.466Z,22.6
2018-06-23T07:40:44.236Z,22.6
2018-06-23T07:41:33.199Z,22.6
2018-06-23T07:42:23.554Z,22.5
2018-06-23T07:43:12.461Z,22.5
2018-06-23T07:44:02.824Z,22.6
2018-06-23T07:44:52.578Z,22.6
2018-06-23T07:45:43.226Z,22.6
2018-06-23T07:46:32.987Z,22.6
2018-06-23T07:47:24.311Z,22.6
2018-06-23T07:48:13.650Z,22.6
2018-06-23T07:49:04.026Z,22.6
2018-06-23T07:49:53.761Z,22.6
2018-06-23T07:50:44.211Z,22.4
2018-06-23T07:51:34.196Z,22.6
2018-06-23T07:52:24.216Z,22.5
2018-06-23T07:53:12.945Z,22.6
2018-06-23T07:54:03.793Z,22.6
2018-06-23T07:54:53.861Z,22.6
2018-06-23T07:55:44.527Z,22.6
2018-06-23T07:56:34.271Z,22.6
2018-06-23T07:57:24.872Z,22.5
2018-06-23T07:58:14.073Z,22.5
2018-06-23T07:59:04.415Z,22.5
2018-06-23T07:59:53.390Z,22.5
2018-06-23T08:00:44.326Z,22.5
2018-06-23T08:01:35.087Z,22.5
2018-06-23T08:02:24.938Z,22.4
2018-06-23T08:03:14.482Z,22.3
2018-06-23T08:04:04.843Z,22.3
2018-06-23T08:04:55.126Z,22.3
2018-06-23T08:05:44.169Z,22.3
2018-06-23T08:06:35.325Z,22.4
2018-06-23T08:07:24.797Z,22.4
2018-06-23T08:08:15.676Z,22.4
2018-06-23T08:09:04.976Z,22.4
2018-06-23T08:09:54.973Z,22.3
2018-06-23T08:10:45.051Z,22.3
2018-06-23T08:11:35.834Z,22.3
2018-06-23T08:12:25.481Z,22.3
2018-06-23T08:13:15.995Z,22.4
2018-06-23T08:14:05.854Z,22.3
2018-06-23T08:14:55.919Z,22.3
2018-06-23T08:15:45.640Z,22.3
2018-06-23T08:16:35.723Z,22.3
2018-06-23T08:17:26.158Z,22.3
2018-06-23T08:18:16.414Z,22.4
2018-06-23T08:19:05.906Z,22.3
2018-06-23T08:19:56.046Z,22.3
2018-06-23T08:20:45.246Z,22.3
2018-06-23T08:21:36.426Z,22.4
2018-06-23T08:22:26.450Z,22.4
2018-06-23T08:23:15.720Z,22.4
2018-06-23T08:24:06.416Z,22.4
2018-06-23T08:24:57.292Z,22.4
2018-06-23T08:25:46.241Z,22.4
2018-06-23T08:26:39.052Z,22.3
2018-06-23T08:27:27.173Z,22.3
2018-06-23T08:28:16.717Z,22.3
2018-06-23T08:29:06.932Z,22.3
2018-06-23T08:29:57.355Z,22.4
2018-06-23T08:30:47.070Z,22.4
2018-06-23T08:31:37.200Z,22.4
2018-06-23T08:32:26.937Z,22.3
2018-06-23T08:33:17.256Z,22.3
2018-06-23T08:34:07.046Z,22.4
2018-06-23T08:34:57.611Z,22.4
2018-06-23T08:35:46.609Z,22.4
2018-06-23T08:36:37.533Z,22.4
2018-06-23T08:37:27.388Z,22.4
2018-06-23T08:38:17.620Z,22.4
2018-06-23T08:39:07.722Z,22.4
2018-06-23T08:39:57.752Z,22.4
2018-06-23T08:40:47.878Z,22.4
2018-06-23T08:41:38.156Z,22.4
2018-06-23T08:42:27.418Z,22.4
2018-06-23T08:43:18.283Z,22.4
2018-06-23T08:44:07.814Z,22.5
2018-06-23T08:44:58.134Z,22.5
2018-06-23T08:45:47.925Z,22.5
2018-06-23T08:46:38.552Z,22.5
2018-06-23T08:47:28.070Z,22.4
2018-06-23T08:48:18.719Z,22.4
2018-06-23T08:49:09.625Z,22.4
2018-06-23T08:49:58.290Z,22.5
2018-06-23T08:50:48.316Z,22.5
2018-06-23T08:51:37.824Z,22.6
2018-06-23T08:52:28.438Z,22.5
2018-06-23T08:53:18.479Z,22.6
2018-06-23T08:54:07.964Z,22.7
2018-06-23T08:54:58.900Z,22.8
2018-06-23T08:55:49.193Z,22.8
2018-06-23T08:56:38.476Z,22.9
2018-06-23T08:57:29.368Z,22.9
2018-06-23T08:58:18.629Z,23
2018-06-23T08:59:08.698Z,23
2018-06-23T08:59:58.979Z,23
2018-06-23T09:00:49.609Z,23
2018-06-23T09:01:39.456Z,23.1
2018-06-23T09:02:29.732Z,23.1
2018-06-23T09:03:19.232Z,23.1
2018-06-23T09:04:09.626Z,23.1
2018-06-23T09:04:59.896Z,23.1
2018-06-23T09:05:50.029Z,23.1
2018-06-23T09:06:39.460Z,23.1
2018-06-23T09:07:28.724Z,23.1
2018-06-23T09:08:19.331Z,23.1
2018-06-23T09:09:10.299Z,23.1
2018-06-23T09:09:59.265Z,23.2
2018-06-23T09:10:48.953Z,23.2
2018-06-23T09:11:40.413Z,23.2
2018-06-23T09:12:30.313Z,23.3
2018-06-23T09:13:20.024Z,23.2
2018-06-23T09:14:10.310Z,23.1
2018-06-23T09:15:00.433Z,23.1
2018-06-23T09:15:50.717Z,23.1
2018-06-23T09:16:40.675Z,23
2018-06-23T09:17:30.382Z,22.9
2018-06-23T09:18:20.107Z,22.9
2018-06-23T09:19:10.155Z,22.9
2018-06-23T09:20:00.805Z,22.8
2018-06-23T09:20:51.123Z,22.8
2018-06-23T09:21:40.073Z,22.8
2018-06-23T09:22:30.739Z,22.8
2018-06-23T09:23:20.547Z,22.8
2018-06-23T09:24:11.082Z,22.8
2018-06-23T09:25:00.669Z,22.8
2018-06-23T09:25:51.859Z,22.9
2018-06-23T09:26:41.344Z,22.9
2018-06-23T09:27:31.289Z,22.9
2018-06-23T09:28:21.091Z,22.8
2018-06-23T09:29:11.428Z,22.8
2018-06-23T09:30:01.539Z,22.9
2018-06-23T09:30:51.024Z,22.9
2018-06-23T09:31:41.626Z,22.9
2018-06-23T09:32:31.996Z,23
2018-06-23T09:33:22.085Z,23.1
2018-06-23T09:34:11.564Z,23.1
2018-06-23T09:35:01.343Z,23
2018-06-23T09:35:52.256Z,23.1
2018-06-23T09:36:41.548Z,23.1
2018-06-23T09:37:32.106Z,23.1
2018-06-23T09:38:21.868Z,23.1
2018-06-23T09:39:12.199Z,23
2018-06-23T09:40:01.817Z,23
2018-06-23T09:40:51.279Z,23
2018-06-23T09:41:41.067Z,23
2018-06-23T09:42:31.073Z,22.9
2018-06-23T09:43:22.247Z,22.9
2018-06-23T09:44:11.777Z,22.9
2018-06-23T09:45:01.010Z,22.9
2018-06-23T09:45:53.793Z,22.9
2018-06-23T09:46:41.956Z,22.9
2018-06-23T09:47:32.619Z,22.9
2018-06-23T09:48:22.339Z,22.9
2018-06-23T09:49:12.269Z,22.9
2018-06-23T09:50:02.523Z,22.9
2018-06-23T09:50:52.838Z,22.9
2018-06-23T09:51:42.061Z,22.9
2018-06-23T09:52:32.980Z,22.9
2018-06-23T09:53:21.887Z,22.9
2018-06-23T09:54:13.083Z,22.9
2018-06-23T09:55:03.158Z,22.9
2018-06-23T09:55:53.624Z,22.9
2018-06-23T09:56:42.746Z,22.9
2018-06-23T09:57:32.795Z,22.9
2018-06-23T09:58:22.866Z,22.9
2018-06-23T09:59:13.472Z,23.1
2018-06-23T10:00:03.793Z,23.1
2018-06-23T10:00:53.612Z,23
2018-06-23T10:01:43.409Z,23
2018-06-23T10:02:33.732Z,22.9
2018-06-23T10:03:24.492Z,23
2018-06-23T10:04:13.307Z,22.9
2018-06-23T10:05:03.079Z,22.9
2018-06-23T10:05:53.803Z,23
2018-06-23T10:06:44.556Z,23
2018-06-23T10:07:34.061Z,23.1
2018-06-23T10:08:23.975Z,23.1
2018-06-23T10:09:14.257Z,23.1
2018-06-23T10:10:04.558Z,23.1
2018-06-23T10:10:54.363Z,23.1
2018-06-23T10:11:43.605Z,23
2018-06-23T10:12:34.257Z,23
2018-06-23T10:13:24.527Z,23.1
2018-06-23T10:14:14.600Z,23.1
2018-06-23T10:15:04.339Z,23.1
2018-06-23T10:15:54.758Z,23.1
2018-06-23T10:16:44.031Z,23.1
2018-06-23T10:17:35.122Z,23.1
2018-06-23T10:18:23.716Z,23.1
2018-06-23T10:19:14.704Z,23.1
2018-06-23T10:20:04.311Z,23.1
2018-06-23T10:20:55.371Z,23.1
2018-06-23T10:21:45.586Z,23.1
2018-06-23T10:22:35.514Z,23.1
2018-06-23T10:23:25.285Z,23
2018-06-23T10:24:15.103Z,23
2018-06-23T10:25:05.397Z,23
2018-06-23T10:25:55.440Z,23
2018-06-23T10:26:45.493Z,23.1
2018-06-23T10:27:36.217Z,23.1
2018-06-23T10:28:25.920Z,23.1
2018-06-23T10:29:15.993Z,23.1
2018-06-23T10:30:04.434Z,23.1
2018-06-23T10:30:55.565Z,23.1
2018-06-23T10:31:46.182Z,23.1
2018-06-23T10:32:35.751Z,23.1
2018-06-23T10:33:26.262Z,23.1
2018-06-23T10:34:16.643Z,23.1
2018-06-23T10:35:05.652Z,23.1
2018-06-23T10:35:56.503Z,23.1
2018-06-23T10:36:46.567Z,23.1
2018-06-23T10:37:36.907Z,23.1
2018-06-23T10:38:26.506Z,23.1
2018-06-23T10:39:16.511Z,23.2
2018-06-23T10:40:09.397Z,23.2
2018-06-23T10:40:56.049Z,23.2
2018-06-23T10:41:46.936Z,23.2
2018-06-23T10:42:37.283Z,23.2
2018-06-23T10:43:26.503Z,23.2
2018-06-23T10:44:16.385Z,23.2
2018-06-23T10:45:06.702Z,23.2
2018-06-23T10:45:56.548Z,23.1
2018-06-23T10:46:46.585Z,23.1
2018-06-23T10:47:36.518Z,23.1
2018-06-23T10:48:26.137Z,23.2
2018-06-23T10:49:17.040Z,23.2
2018-06-23T10:50:07.296Z,23.3
2018-06-23T10:50:56.786Z,23.2
2018-06-23T10:51:46.568Z,23.2
2018-06-23T10:52:37.497Z,23.2
2018-06-23T10:53:27.592Z,23.2
2018-06-23T10:54:17.706Z,23.3
2018-06-23T10:55:07.700Z,23.4
2018-06-23T10:55:57.217Z,23.4
2018-06-23T10:56:48.088Z,23.5
2018-06-23T10:57:37.340Z,23.6
2018-06-23T10:58:27.926Z,23.6
2018-06-23T10:59:17.536Z,23.7
2018-06-23T11:00:07.229Z,23.7
2018-06-23T11:00:58.640Z,23.8
2018-06-23T11:01:48.208Z,23.8
2018-06-23T11:02:38.199Z,23.8
2018-06-23T11:03:28.589Z,23.8
2018-06-23T11:04:18.649Z,23.8
2018-06-23T11:05:09.447Z,23.8
2018-06-23T11:05:59.125Z,23.8
2018-06-23T11:06:48.633Z,23.8
2018-06-23T11:07:38.624Z,23.7
2018-06-23T11:08:28.939Z,23.7
2018-06-23T11:09:18.986Z,23.7
2018-06-23T11:10:08.625Z,23.7
2018-06-23T11:10:58.200Z,23.8
2018-06-23T11:11:48.991Z,23.8